sensor_id;sensor_type;location;lat;lon;timestamp;temperature;humidity
46217;DHT22;47258;59.424;13.482;2022-09-11T08:30:34;16.20;99.90
46217;DHT22;47258;59.424;13.482;2022-09-11T08:33:03;16.20;99.90
46217;DHT22;47258;59.424;13.482;2022-09-11T08:35:30;16.20;99.90
46217;DHT22;47258;59.424;13.482;2022-09-11T08:37:59;16.30;99.90
46217;DHT22;47258;59.424;13.482;2022-09-11T08:40:26;16.30;99.90
46217;DHT22;47258;59.424;13.482;2022-09-11T08:42:55;16.30;99.90
46217;DHT22;47258;59.424;13.482;2022-09-11T08:45:27;16.40;99.90
46217;DHT22;47258;59.424;13.482;2022-09-11T08:47:57;16.50;99.90
46217;DHT22;47258;59.424;13.482;2022-09-11T08:50:27;16.60;99.90
46217;DHT22;47258;59.424;13.482;2022-09-11T08:52:57;16.70;99.90
46217;DHT22;47258;59.424;13.482;2022-09-11T08:55:32;16.80;99.90
46217;DHT22;47258;59.424;13.482;2022-09-11T08:58:09;17.00;99.90
46217;DHT22;47258;59.424;13.482;2022-09-11T09:00:41;17.10;99.90
46217;DHT22;47258;59.424;13.482;2022-09-11T09:03:25;17.20;99.90
46217;DHT22;47258;59.424;13.482;2022-09-11T09:05:58;17.30;99.90
46217;DHT22;47258;59.424;13.482;2022-09-11T09:08:41;17.40;99.90
46217;DHT22;47258;59.424;13.482;2022-09-11T09:11:17;17.50;99.90
46217;DHT22;47258;59.424;13.482;2022-09-11T09:14:01;17.60;99.90
46217;DHT22;47258;59.424;13.482;2022-09-11T09:16:38;17.60;99.90
46217;DHT22;47258;59.424;13.482;2022-09-11T09:19:13;17.70;99.90
46217;DHT22;47258;59.424;13.482;2022-09-11T09:21:47;17.70;99.90
46217;DHT22;47258;59.424;13.482;2022-09-11T09:24:18;17.70;99.90
46217;DHT22;47258;59.424;13.482;2022-09-11T09:26:50;17.80;99.90
46217;DHT22;47258;59.424;13.482;2022-09-11T09:29:19;17.80;99.90
46217;DHT22;47258;59.424;13.482;2022-09-11T09:31:50;17.90;99.90
46217;DHT22;47258;59.424;13.482;2022-09-11T09:34:20;18.00;99.90
46217;DHT22;47258;59.424;13.482;2022-09-11T09:36:54;18.10;99.90
46217;DHT22;47258;59.424;13.482;2022-09-11T09:39:24;18.10;99.90
46217;DHT22;47258;59.424;13.482;2022-09-11T09:42:16;18.00;99.90
46217;DHT22;47258;59.424;13.482;2022-09-11T09:45:14;17.90;99.90
46217;DHT22;47258;59.424;13.482;2022-09-11T09:47:47;17.80;99.90
46217;DHT22;47258;59.424;13.482;2022-09-11T09:50:17;17.80;99.90
46217;DHT22;47258;59.424;13.482;2022-09-11T09:52:46;17.90;99.90
46217;DHT22;47258;59.424;13.482;2022-09-11T09:55:16;17.90;99.90
46217;DHT22;47258;59.424;13.482;2022-09-11T09:57:45;18.00;99.90
46217;DHT22;47258;59.424;13.482;2022-09-11T10:00:16;18.10;99.90
46217;DHT22;47258;59.424;13.482;2022-09-11T10:02:45;18.20;99.90
46217;DHT22;47258;59.424;13.482;2022-09-11T10:05:23;18.20;99.90
46217;DHT22;47258;59.424;13.482;2022-09-11T10:07:52;18.20;99.90
46217;DHT22;47258;59.424;13.482;2022-09-11T10:10:25;18.30;99.90
46217;DHT22;47258;59.424;13.482;2022-09-11T10:12:55;18.40;99.90
46217;DHT22;47258;59.424;13.482;2022-09-11T10:15:23;18.40;99.90
46217;DHT22;47258;59.424;13.482;2022-09-11T10:17:51;18.50;99.90
46217;DHT22;47258;59.424;13.482;2022-09-11T10:20:23;18.70;99.90
46217;DHT22;47258;59.424;13.482;2022-09-11T10:22:54;18.80;99.90
46217;DHT22;47258;59.424;13.482;2022-09-11T10:25:22;18.80;99.90
46217;DHT22;47258;59.424;13.482;2022-09-11T10:28:00;18.90;99.90
46217;DHT22;47258;59.424;13.482;2022-09-11T10:30:31;19.00;99.90
46217;DHT22;47258;59.424;13.482;2022-09-11T10:33:02;19.10;99.90
46217;DHT22;47258;59.424;13.482;2022-09-11T10:35:32;19.20;99.90
46217;DHT22;47258;59.424;13.482;2022-09-11T10:38:10;19.30;99.90
46217;DHT22;47258;59.424;13.482;2022-09-11T10:40:38;19.30;99.90
46217;DHT22;47258;59.424;13.482;2022-09-11T10:43:18;19.20;99.90
46217;DHT22;47258;59.424;13.482;2022-09-11T10:46:04;19.30;99.90
46217;DHT22;47258;59.424;13.482;2022-09-11T10:48:31;19.30;99.90
46217;DHT22;47258;59.424;13.482;2022-09-11T10:51:05;19.30;99.90
46217;DHT22;47258;59.424;13.482;2022-09-11T10:53:44;19.30;99.90
46217;DHT22;47258;59.424;13.482;2022-09-11T10:56:14;19.30;99.90
46217;DHT22;47258;59.424;13.482;2022-09-11T10:58:45;19.50;99.90
46217;DHT22;47258;59.424;13.482;2022-09-11T11:01:14;19.50;99.90
46217;DHT22;47258;59.424;13.482;2022-09-11T11:03:41;19.50;99.90
46217;DHT22;47258;59.424;13.482;2022-09-11T11:06:18;19.60;99.90
46217;DHT22;47258;59.424;13.482;2022-09-11T11:09:09;19.70;99.90
46217;DHT22;47258;59.424;13.482;2022-09-11T11:11:52;19.70;99.90
46217;DHT22;47258;59.424;13.482;2022-09-11T11:14:36;19.70;99.90
46217;DHT22;47258;59.424;13.482;2022-09-11T11:17:17;19.80;99.90
46217;DHT22;47258;59.424;13.482;2022-09-11T11:20:09;19.80;99.90
46217;DHT22;47258;59.424;13.482;2022-09-11T11:22:57;19.80;99.90
46217;DHT22;47258;59.424;13.482;2022-09-11T11:25:31;19.90;99.90
46217;DHT22;47258;59.424;13.482;2022-09-11T11:28:20;19.80;99.90
46217;DHT22;47258;59.424;13.482;2022-09-11T11:30:57;19.90;99.90
46217;DHT22;47258;59.424;13.482;2022-09-11T11:33:48;20.00;99.90
46217;DHT22;47258;59.424;13.482;2022-09-11T11:36:24;20.00;99.90
46217;DHT22;47258;59.424;13.482;2022-09-11T11:38:56;20.10;99.90
46217;DHT22;47258;59.424;13.482;2022-09-11T11:41:29;20.30;99.90
46217;DHT22;47258;59.424;13.482;2022-09-11T11:43:56;20.50;99.90
46217;DHT22;47258;59.424;13.482;2022-09-11T11:46:28;20.60;99.90
46217;DHT22;47258;59.424;13.482;2022-09-11T11:49:00;20.60;99.90
46217;DHT22;47258;59.424;13.482;2022-09-11T11:51:29;20.60;99.90
46217;DHT22;47258;59.424;13.482;2022-09-11T11:54:02;20.40;99.90
46217;DHT22;47258;59.424;13.482;2022-09-11T16:00:04;18.40;99.90
46217;DHT22;47258;59.424;13.482;2022-09-11T16:02:33;18.50;99.90
46217;DHT22;47258;59.424;13.482;2022-09-11T16:05:00;18.50;99.90
46217;DHT22;47258;59.424;13.482;2022-09-11T16:07:27;18.50;99.90
46217;DHT22;47258;59.424;13.482;2022-09-11T16:09:55;18.40;99.90
46217;DHT22;47258;59.424;13.482;2022-09-11T16:12:23;18.30;99.90
46217;DHT22;47258;59.424;13.482;2022-09-11T16:14:50;18.30;99.90
46217;DHT22;47258;59.424;13.482;2022-09-11T16:17:18;18.20;99.90
46217;DHT22;47258;59.424;13.482;2022-09-11T16:19:46;18.10;99.90
46217;DHT22;47258;59.424;13.482;2022-09-11T16:22:13;18.00;99.90
46217;DHT22;47258;59.424;13.482;2022-09-11T16:24:40;18.00;99.90
46217;DHT22;47258;59.424;13.482;2022-09-11T16:27:08;17.90;99.90
46217;DHT22;47258;59.424;13.482;2022-09-11T16:29:36;17.80;99.90
46217;DHT22;47258;59.424;13.482;2022-09-11T16:32:03;17.80;99.90
46217;DHT22;47258;59.424;13.482;2022-09-11T16:34:30;17.70;99.90
46217;DHT22;47258;59.424;13.482;2022-09-11T16:36:58;17.70;99.90
46217;DHT22;47258;59.424;13.482;2022-09-11T16:39:25;17.70;99.90
46217;DHT22;47258;59.424;13.482;2022-09-11T16:41:52;17.70;99.90
46217;DHT22;47258;59.424;13.482;2022-09-11T16:44:21;17.60;99.90
46217;DHT22;47258;59.424;13.482;2022-09-11T16:46:48;17.60;99.90
46217;DHT22;47258;59.424;13.482;2022-09-11T16:49:17;17.60;99.90
46217;DHT22;47258;59.424;13.482;2022-09-11T16:51:45;17.60;99.90
46217;DHT22;47258;59.424;13.482;2022-09-11T16:54:14;17.60;99.90
46217;DHT22;47258;59.424;13.482;2022-09-11T16:56:41;17.70;99.90
46217;DHT22;47258;59.424;13.482;2022-09-11T16:59:08;17.60;99.90
46217;DHT22;47258;59.424;13.482;2022-09-11T17:01:37;17.60;99.90
46217;DHT22;47258;59.424;13.482;2022-09-11T17:04:04;17.60;99.90
46217;DHT22;47258;59.424;13.482;2022-09-11T17:06:31;17.60;99.90
46217;DHT22;47258;59.424;13.482;2022-09-11T17:08:59;17.50;99.90
46217;DHT22;47258;59.424;13.482;2022-09-11T17:11:28;17.50;99.90
46217;DHT22;47258;59.424;13.482;2022-09-11T17:13:55;17.40;99.90
46217;DHT22;47258;59.424;13.482;2022-09-11T17:16:25;17.40;99.90
46217;DHT22;47258;59.424;13.482;2022-09-11T17:18:54;17.30;99.90
46217;DHT22;47258;59.424;13.482;2022-09-11T17:21:23;17.20;99.90
46217;DHT22;47258;59.424;13.482;2022-09-11T17:23:51;17.10;99.90
46217;DHT22;47258;59.424;13.482;2022-09-11T17:26:18;17.10;99.90
46217;DHT22;47258;59.424;13.482;2022-09-11T17:28:47;17.00;99.90
46217;DHT22;47258;59.424;13.482;2022-09-11T17:31:15;16.90;99.90
46217;DHT22;47258;59.424;13.482;2022-09-11T17:33:44;16.90;99.90
46217;DHT22;47258;59.424;13.482;2022-09-11T17:36:13;16.80;99.90
46217;DHT22;47258;59.424;13.482;2022-09-11T17:38:42;16.70;99.90
46217;DHT22;47258;59.424;13.482;2022-09-11T17:41:09;16.70;99.90
46217;DHT22;47258;59.424;13.482;2022-09-11T17:43:37;16.60;99.90
46217;DHT22;47258;59.424;13.482;2022-09-11T17:46:07;16.50;99.90
46217;DHT22;47258;59.424;13.482;2022-09-11T17:48:35;16.40;99.90
46217;DHT22;47258;59.424;13.482;2022-09-11T17:51:03;16.40;99.90
46217;DHT22;47258;59.424;13.482;2022-09-11T17:53:33;16.30;99.90
46217;DHT22;47258;59.424;13.482;2022-09-11T17:56:04;16.20;99.90
46217;DHT22;47258;59.424;13.482;2022-09-11T17:58:31;16.20;99.90
46217;DHT22;47258;59.424;13.482;2022-09-11T18:00:58;16.10;99.90
46217;DHT22;47258;59.424;13.482;2022-09-11T18:03:26;16.00;99.90
46217;DHT22;47258;59.424;13.482;2022-09-11T18:05:54;16.00;99.90
46217;DHT22;47258;59.424;13.482;2022-09-11T18:08:22;15.90;99.90
46217;DHT22;47258;59.424;13.482;2022-09-11T18:10:54;15.80;99.90
46217;DHT22;47258;59.424;13.482;2022-09-11T18:13:24;15.70;99.90
46217;DHT22;47258;59.424;13.482;2022-09-11T18:15:51;15.60;99.90
46217;DHT22;47258;59.424;13.482;2022-09-11T18:18:19;15.60;99.90
46217;DHT22;47258;59.424;13.482;2022-09-11T18:20:46;15.50;99.90
46217;DHT22;47258;59.424;13.482;2022-09-11T18:23:13;15.40;99.90
46217;DHT22;47258;59.424;13.482;2022-09-11T18:25:41;15.30;99.90
46217;DHT22;47258;59.424;13.482;2022-09-11T18:28:10;15.20;99.90
46217;DHT22;47258;59.424;13.482;2022-09-11T18:30:37;15.10;99.90
46217;DHT22;47258;59.424;13.482;2022-09-11T18:33:07;15.00;99.90
46217;DHT22;47258;59.424;13.482;2022-09-11T18:35:35;14.90;99.90
46217;DHT22;47258;59.424;13.482;2022-09-11T18:38:02;14.80;99.90
46217;DHT22;47258;59.424;13.482;2022-09-11T18:40:29;14.80;99.90
46217;DHT22;47258;59.424;13.482;2022-09-11T18:42:56;14.70;99.90
46217;DHT22;47258;59.424;13.482;2022-09-11T18:45:25;14.70;99.90
46217;DHT22;47258;59.424;13.482;2022-09-11T18:47:55;14.60;99.90
46217;DHT22;47258;59.424;13.482;2022-09-11T18:52:50;14.40;99.90
46217;DHT22;47258;59.424;13.482;2022-09-11T18:55:17;14.40;99.90
46217;DHT22;47258;59.424;13.482;2022-09-11T18:57:47;14.30;99.90
46217;DHT22;47258;59.424;13.482;2022-09-11T19:00:15;14.30;99.90
46217;DHT22;47258;59.424;13.482;2022-09-11T19:02:44;14.20;99.90
46217;DHT22;47258;59.424;13.482;2022-09-11T19:05:12;14.10;99.90
46217;DHT22;47258;59.424;13.482;2022-09-11T19:07:40;14.00;99.90
46217;DHT22;47258;59.424;13.482;2022-09-11T19:10:09;13.90;99.90
46217;DHT22;47258;59.424;13.482;2022-09-11T19:12:36;13.90;99.90
46217;DHT22;47258;59.424;13.482;2022-09-11T19:15:04;13.80;99.90
46217;DHT22;47258;59.424;13.482;2022-09-11T19:17:31;13.80;99.90
46217;DHT22;47258;59.424;13.482;2022-09-11T19:19:59;13.90;99.90
46217;DHT22;47258;59.424;13.482;2022-09-11T19:22:27;13.90;99.90
46217;DHT22;47258;59.424;13.482;2022-09-11T19:24:55;13.80;99.90
46217;DHT22;47258;59.424;13.482;2022-09-11T19:27:22;13.80;99.90
46217;DHT22;47258;59.424;13.482;2022-09-11T19:29:50;13.80;99.90
46217;DHT22;47258;59.424;13.482;2022-09-11T19:32:17;13.80;99.90
46217;DHT22;47258;59.424;13.482;2022-09-11T19:34:44;13.80;99.90
46217;DHT22;47258;59.424;13.482;2022-09-11T19:37:13;13.80;99.90
46217;DHT22;47258;59.424;13.482;2022-09-11T19:39:40;13.80;99.90
46217;DHT22;47258;59.424;13.482;2022-09-11T19:42:07;13.90;99.90
46217;DHT22;47258;59.424;13.482;2022-09-11T19:44:34;13.90;99.90
46217;DHT22;47258;59.424;13.482;2022-09-11T19:47:01;14.00;99.90
46217;DHT22;47258;59.424;13.482;2022-09-11T19:49:28;14.00;99.90
46217;DHT22;47258;59.424;13.482;2022-09-11T19:51:55;14.00;99.90
46217;DHT22;47258;59.424;13.482;2022-09-11T19:54:25;14.10;99.90
46217;DHT22;47258;59.424;13.482;2022-09-11T19:56:52;14.00;99.90
46217;DHT22;47258;59.424;13.482;2022-09-11T19:59:19;14.00;99.90
46217;DHT22;47258;59.424;13.482;2022-09-11T20:01:46;14.00;99.90
46217;DHT22;47258;59.424;13.482;2022-09-11T20:04:13;14.10;99.90
46217;DHT22;47258;59.424;13.482;2022-09-11T20:06:42;14.10;99.90
46217;DHT22;47258;59.424;13.482;2022-09-11T20:09:09;14.20;99.90
46217;DHT22;47258;59.424;13.482;2022-09-11T20:11:37;14.10;99.90
46217;DHT22;47258;59.424;13.482;2022-09-11T20:14:04;14.20;99.90
46217;DHT22;47258;59.424;13.482;2022-09-11T20:16:32;14.20;99.90
46217;DHT22;47258;59.424;13.482;2022-09-11T20:19:00;14.20;99.90
46217;DHT22;47258;59.424;13.482;2022-09-11T20:21:31;14.30;99.90
46217;DHT22;47258;59.424;13.482;2022-09-11T20:23:58;14.30;99.90
46217;DHT22;47258;59.424;13.482;2022-09-11T20:26:27;14.30;99.90
46217;DHT22;47258;59.424;13.482;2022-09-11T20:28:57;14.30;99.90
46217;DHT22;47258;59.424;13.482;2022-09-11T20:31:26;14.30;99.90
46217;DHT22;47258;59.424;13.482;2022-09-11T20:33:54;14.40;99.90
46217;DHT22;47258;59.424;13.482;2022-09-11T20:36:21;14.40;99.90
46217;DHT22;47258;59.424;13.482;2022-09-11T20:38:50;14.40;99.90
46217;DHT22;47258;59.424;13.482;2022-09-11T20:41:19;14.40;99.90
46217;DHT22;47258;59.424;13.482;2022-09-11T20:43:48;14.40;99.90
46217;DHT22;47258;59.424;13.482;2022-09-11T20:46:16;14.40;99.90
46217;DHT22;47258;59.424;13.482;2022-09-11T20:48:47;14.40;99.90
46217;DHT22;47258;59.424;13.482;2022-09-11T20:51:14;14.30;99.90
46217;DHT22;47258;59.424;13.482;2022-09-11T20:53:41;14.30;99.90
46217;DHT22;47258;59.424;13.482;2022-09-11T20:56:11;14.30;99.90
46217;DHT22;47258;59.424;13.482;2022-09-11T20:58:38;14.30;99.90
46217;DHT22;47258;59.424;13.482;2022-09-11T21:01:06;14.30;99.90
46217;DHT22;47258;59.424;13.482;2022-09-11T21:03:34;14.30;99.90
46217;DHT22;47258;59.424;13.482;2022-09-11T21:06:05;14.30;99.90
46217;DHT22;47258;59.424;13.482;2022-09-11T21:08:33;14.30;99.90
46217;DHT22;47258;59.424;13.482;2022-09-11T21:11:03;14.30;99.90
46217;DHT22;47258;59.424;13.482;2022-09-11T21:13:33;14.20;99.90
46217;DHT22;47258;59.424;13.482;2022-09-11T21:16:05;14.10;99.90
46217;DHT22;47258;59.424;13.482;2022-09-11T21:18:34;14.10;99.90
46217;DHT22;47258;59.424;13.482;2022-09-11T21:21:01;14.00;99.90
46217;DHT22;47258;59.424;13.482;2022-09-11T21:23:28;13.90;99.90
